sensor_id;sensor_type;location;lat;lon;timestamp;temperature;humidity
2100;DHT22;1055;48.854;9.302;2023-12-14T00:00:19;7.10;99.90
2100;DHT22;1055;48.854;9.302;2023-12-14T00:02:45;7.00;99.90
2100;DHT22;1055;48.854;9.302;2023-12-14T00:05:10;7.10;99.90
2100;DHT22;1055;48.854;9.302;2023-12-14T00:07:36;7.20;99.90
2100;DHT22;1055;48.854;9.302;2023-12-14T00:10:02;7.00;99.90
2100;DHT22;1055;48.854;9.302;2023-12-14T00:12:29;6.90;99.90
2100;DHT22;1055;48.854;9.302;2023-12-14T00:14:54;7.30;99.90
2100;DHT22;1055;48.854;9.302;2023-12-14T00:17:20;7.40;99.90
2100;DHT22;1055;48.854;9.302;2023-12-14T00:19:45;7.20;99.90
2100;DHT22;1055;48.854;9.302;2023-12-14T00:22:11;7.30;99.90
2100;DHT22;1055;48.854;9.302;2023-12-14T00:24:36;7.30;99.90
2100;DHT22;1055;48.854;9.302;2023-12-14T00:27:02;7.60;99.90
2100;DHT22;1055;48.854;9.302;2023-12-14T00:29:28;7.40;99.90
2100;DHT22;1055;48.854;9.302;2023-12-14T00:31:53;7.40;99.90
2100;DHT22;1055;48.854;9.302;2023-12-14T00:34:19;7.40;99.90
2100;DHT22;1055;48.854;9.302;2023-12-14T00:36:44;7.30;99.90
2100;DHT22;1055;48.854;9.302;2023-12-14T00:39:10;7.40;99.90
2100;DHT22;1055;48.854;9.302;2023-12-14T00:41:36;7.40;99.90
2100;DHT22;1055;48.854;9.302;2023-12-14T00:44:01;7.60;99.90
2100;DHT22;1055;48.854;9.302;2023-12-14T00:46:27;7.60;99.90
2100;DHT22;1055;48.854;9.302;2023-12-14T00:48:52;7.80;99.90
2100;DHT22;1055;48.854;9.302;2023-12-14T00:51:18;7.60;99.90
2100;DHT22;1055;48.854;9.302;2023-12-14T00:53:43;7.70;99.90
2100;DHT22;1055;48.854;9.302;2023-12-14T00:56:09;7.60;99.90
2100;DHT22;1055;48.854;9.302;2023-12-14T00:58:35;7.70;99.90
2100;DHT22;1055;48.854;9.302;2023-12-14T01:01:00;7.50;99.90
2100;DHT22;1055;48.854;9.302;2023-12-14T01:03:29;7.60;99.90
2100;DHT22;1055;48.854;9.302;2023-12-14T01:05:54;7.70;99.90
2100;DHT22;1055;48.854;9.302;2023-12-14T01:08:20;7.60;99.90
2100;DHT22;1055;48.854;9.302;2023-12-14T01:10:46;7.40;99.90
2100;DHT22;1055;48.854;9.302;2023-12-14T01:13:11;7.30;99.90
2100;DHT22;1055;48.854;9.302;2023-12-14T01:15:37;7.20;99.90
2100;DHT22;1055;48.854;9.302;2023-12-14T01:18:02;7.30;99.90
2100;DHT22;1055;48.854;9.302;2023-12-14T01:20:28;7.30;99.90
2100;DHT22;1055;48.854;9.302;2023-12-14T01:22:54;7.30;99.90
2100;DHT22;1055;48.854;9.302;2023-12-14T01:25:20;7.50;99.90
2100;DHT22;1055;48.854;9.302;2023-12-14T01:27:45;7.50;99.90
2100;DHT22;1055;48.854;9.302;2023-12-14T01:30:11;7.40;99.90
2100;DHT22;1055;48.854;9.302;2023-12-14T01:32:37;7.30;99.90
2100;DHT22;1055;48.854;9.302;2023-12-14T01:35:03;7.50;99.90
2100;DHT22;1055;48.854;9.302;2023-12-14T01:37:29;7.40;99.90
2100;DHT22;1055;48.854;9.302;2023-12-14T01:39:54;7.10;99.90
2100;DHT22;1055;48.854;9.302;2023-12-14T01:42:20;6.90;99.90
2100;DHT22;1055;48.854;9.302;2023-12-14T01:44:45;6.70;99.90
2100;DHT22;1055;48.854;9.302;2023-12-14T01:47:11;6.70;99.90
2100;DHT22;1055;48.854;9.302;2023-12-14T01:49:36;6.70;99.90
2100;DHT22;1055;48.854;9.302;2023-12-14T01:52:02;6.80;99.90
2100;DHT22;1055;48.854;9.302;2023-12-14T01:54:28;6.80;99.90
2100;DHT22;1055;48.854;9.302;2023-12-14T01:56:53;7.10;99.90
2100;DHT22;1055;48.854;9.302;2023-12-14T01:59:20;7.30;99.90
2100;DHT22;1055;48.854;9.302;2023-12-14T02:01:47;7.40;99.90
2100;DHT22;1055;48.854;9.302;2023-12-14T02:04:17;7.30;99.90
2100;DHT22;1055;48.854;9.302;2023-12-14T02:06:43;7.20;99.90
2100;DHT22;1055;48.854;9.302;2023-12-14T02:09:08;7.00;99.90
2100;DHT22;1055;48.854;9.302;2023-12-14T02:11:35;6.70;99.90
2100;DHT22;1055;48.854;9.302;2023-12-14T02:14:10;6.60;99.90
2100;DHT22;1055;48.854;9.302;2023-12-14T02:16:36;6.60;99.90
2100;DHT22;1055;48.854;9.302;2023-12-14T02:19:04;6.70;99.90
2100;DHT22;1055;48.854;9.302;2023-12-14T02:21:30;6.70;99.90
2100;DHT22;1055;48.854;9.302;2023-12-14T02:23:56;6.80;99.90
2100;DHT22;1055;48.854;9.302;2023-12-14T02:26:21;6.90;99.90
2100;DHT22;1055;48.854;9.302;2023-12-14T02:28:47;7.00;99.90
2100;DHT22;1055;48.854;9.302;2023-12-14T02:31:12;7.50;99.90
2100;DHT22;1055;48.854;9.302;2023-12-14T02:33:38;7.80;99.90
2100;DHT22;1055;48.854;9.302;2023-12-14T02:36:04;7.90;99.90
2100;DHT22;1055;48.854;9.302;2023-12-14T02:38:30;7.70;99.90
2100;DHT22;1055;48.854;9.302;2023-12-14T02:40:55;7.70;99.90
2100;DHT22;1055;48.854;9.302;2023-12-14T02:43:21;7.80;99.90
2100;DHT22;1055;48.854;9.302;2023-12-14T02:45:49;7.60;99.90
2100;DHT22;1055;48.854;9.302;2023-12-14T02:48:14;7.80;99.90
2100;DHT22;1055;48.854;9.302;2023-12-14T02:50:40;7.90;99.90
2100;DHT22;1055;48.854;9.302;2023-12-14T02:53:05;8.00;99.90
2100;DHT22;1055;48.854;9.302;2023-12-14T02:55:31;8.10;99.90
2100;DHT22;1055;48.854;9.302;2023-12-14T02:57:57;8.00;99.90
2100;DHT22;1055;48.854;9.302;2023-12-14T03:00:22;7.90;99.90
2100;DHT22;1055;48.854;9.302;2023-12-14T03:02:48;7.80;99.90
2100;DHT22;1055;48.854;9.302;2023-12-14T03:05:14;7.70;99.90
2100;DHT22;1055;48.854;9.302;2023-12-14T03:07:39;7.90;99.90
2100;DHT22;1055;48.854;9.302;2023-12-14T03:10:05;7.80;99.90
2100;DHT22;1055;48.854;9.302;2023-12-14T03:12:31;7.80;99.90
2100;DHT22;1055;48.854;9.302;2023-12-14T03:14:57;7.70;99.90
2100;DHT22;1055;48.854;9.302;2023-12-14T03:17:22;7.50;99.90
2100;DHT22;1055;48.854;9.302;2023-12-14T03:19:48;7.50;99.90
2100;DHT22;1055;48.854;9.302;2023-12-14T03:22:13;7.50;99.90
2100;DHT22;1055;48.854;9.302;2023-12-14T03:24:39;7.60;99.90
2100;DHT22;1055;48.854;9.302;2023-12-14T03:27:05;7.80;99.90
2100;DHT22;1055;48.854;9.302;2023-12-14T03:29:31;8.00;99.90
2100;DHT22;1055;48.854;9.302;2023-12-14T03:31:56;8.00;99.90
2100;DHT22;1055;48.854;9.302;2023-12-14T03:34:23;8.20;99.90
2100;DHT22;1055;48.854;9.302;2023-12-14T03:36:49;8.30;99.90
2100;DHT22;1055;48.854;9.302;2023-12-14T03:39:14;8.30;99.90
2100;DHT22;1055;48.854;9.302;2023-12-14T03:41:42;8.50;99.90
2100;DHT22;1055;48.854;9.302;2023-12-14T03:44:07;8.40;99.90
2100;DHT22;1055;48.854;9.302;2023-12-14T03:46:33;8.40;99.90
2100;DHT22;1055;48.854;9.302;2023-12-14T03:48:59;8.50;99.90
2100;DHT22;1055;48.854;9.302;2023-12-14T03:51:25;8.60;99.90
2100;DHT22;1055;48.854;9.302;2023-12-14T03:53:51;8.70;99.90
2100;DHT22;1055;48.854;9.302;2023-12-14T03:56:16;8.70;99.90
2100;DHT22;1055;48.854;9.302;2023-12-14T03:58:42;8.80;99.90
2100;DHT22;1055;48.854;9.302;2023-12-14T04:01:08;8.70;99.90
2100;DHT22;1055;48.854;9.302;2023-12-14T04:03:33;8.80;99.90
2100;DHT22;1055;48.854;9.302;2023-12-14T04:05:59;8.60;99.90
2100;DHT22;1055;48.854;9.302;2023-12-14T04:08:24;8.60;99.90
2100;DHT22;1055;48.854;9.302;2023-12-14T04:10:50;8.50;99.90
2100;DHT22;1055;48.854;9.302;2023-12-14T04:13:15;8.40;99.90
2100;DHT22;1055;48.854;9.302;2023-12-14T04:15:41;8.50;99.90
2100;DHT22;1055;48.854;9.302;2023-12-14T04:18:07;8.00;99.90
2100;DHT22;1055;48.854;9.302;2023-12-14T04:20:34;8.00;99.90
2100;DHT22;1055;48.854;9.302;2023-12-14T04:22:59;8.20;99.90
2100;DHT22;1055;48.854;9.302;2023-12-14T04:25:25;8.30;99.90
2100;DHT22;1055;48.854;9.302;2023-12-14T04:27:50;8.20;99.90
2100;DHT22;1055;48.854;9.302;2023-12-14T04:30:16;8.50;99.90
2100;DHT22;1055;48.854;9.302;2023-12-14T04:32:42;8.70;99.90
2100;DHT22;1055;48.854;9.302;2023-12-14T04:35:07;8.70;99.90
2100;DHT22;1055;48.854;9.302;2023-12-14T04:37:33;8.70;99.90
2100;DHT22;1055;48.854;9.302;2023-12-14T04:39:59;8.70;99.90
2100;DHT22;1055;48.854;9.302;2023-12-14T04:42:25;8.70;99.90
2100;DHT22;1055;48.854;9.302;2023-12-14T04:44:50;8.60;99.90
2100;DHT22;1055;48.854;9.302;2023-12-14T04:47:16;8.60;99.90
2100;DHT22;1055;48.854;9.302;2023-12-14T04:49:41;8.50;99.90
2100;DHT22;1055;48.854;9.302;2023-12-14T04:52:07;8.40;99.90
2100;DHT22;1055;48.854;9.302;2023-12-14T04:54:34;8.50;99.90
2100;DHT22;1055;48.854;9.302;2023-12-14T04:57:03;8.40;99.90
2100;DHT22;1055;48.854;9.302;2023-12-14T04:59:28;8.20;99.90
2100;DHT22;1055;48.854;9.302;2023-12-14T05:01:54;8.20;99.90
2100;DHT22;1055;48.854;9.302;2023-12-14T05:04:20;8.30;99.90
2100;DHT22;1055;48.854;9.302;2023-12-14T05:06:45;8.00;99.90
2100;DHT22;1055;48.854;9.302;2023-12-14T05:09:11;8.00;99.90
2100;DHT22;1055;48.854;9.302;2023-12-14T05:11:39;8.10;99.90
2100;DHT22;1055;48.854;9.302;2023-12-14T05:14:04;8.10;99.90
2100;DHT22;1055;48.854;9.302;2023-12-14T05:16:30;8.30;99.90
2100;DHT22;1055;48.854;9.302;2023-12-14T05:18:56;8.20;99.90
2100;DHT22;1055;48.854;9.302;2023-12-14T05:21:23;8.30;99.90
2100;DHT22;1055;48.854;9.302;2023-12-14T05:23:49;8.40;99.90
2100;DHT22;1055;48.854;9.302;2023-12-14T05:26:14;8.40;99.90
2100;DHT22;1055;48.854;9.302;2023-12-14T05:28:40;8.40;99.90
2100;DHT22;1055;48.854;9.302;2023-12-14T05:31:06;8.40;99.90
2100;DHT22;1055;48.854;9.302;2023-12-14T05:33:32;8.60;99.90
2100;DHT22;1055;48.854;9.302;2023-12-14T05:36:01;8.60;99.90
2100;DHT22;1055;48.854;9.302;2023-12-14T05:38:27;8.70;99.90
2100;DHT22;1055;48.854;9.302;2023-12-14T05:40:52;8.60;99.90
2100;DHT22;1055;48.854;9.302;2023-12-14T05:43:18;8.50;99.90
2100;DHT22;1055;48.854;9.302;2023-12-14T05:45:43;8.50;99.90
2100;DHT22;1055;48.854;9.302;2023-12-14T05:48:09;8.50;99.90
2100;DHT22;1055;48.854;9.302;2023-12-14T05:50:34;8.30;99.90
2100;DHT22;1055;48.854;9.302;2023-12-14T05:53:00;8.20;99.90
2100;DHT22;1055;48.854;9.302;2023-12-14T05:55:25;8.10;99.90
2100;DHT22;1055;48.854;9.302;2023-12-14T05:57:51;8.00;99.90
2100;DHT22;1055;48.854;9.302;2023-12-14T06:00:18;7.80;99.90
2100;DHT22;1055;48.854;9.302;2023-12-14T06:02:43;7.70;99.90
2100;DHT22;1055;48.854;9.302;2023-12-14T06:05:09;7.60;99.90
2100;DHT22;1055;48.854;9.302;2023-12-14T06:07:35;7.60;99.90
2100;DHT22;1055;48.854;9.302;2023-12-14T06:10:01;7.40;99.90
2100;DHT22;1055;48.854;9.302;2023-12-14T06:12:26;7.30;99.90
2100;DHT22;1055;48.854;9.302;2023-12-14T06:14:52;7.30;99.90
2100;DHT22;1055;48.854;9.302;2023-12-14T06:17:18;7.50;99.90
2100;DHT22;1055;48.854;9.302;2023-12-14T06:19:43;7.20;99.90
2100;DHT22;1055;48.854;9.302;2023-12-14T06:22:09;7.30;99.90
2100;DHT22;1055;48.854;9.302;2023-12-14T06:24:34;7.50;99.90
2100;DHT22;1055;48.854;9.302;2023-12-14T06:27:00;7.50;99.90
2100;DHT22;1055;48.854;9.302;2023-12-14T06:29:26;7.60;99.90
2100;DHT22;1055;48.854;9.302;2023-12-14T06:31:51;7.60;99.90
2100;DHT22;1055;48.854;9.302;2023-12-14T06:34:17;7.60;99.90
2100;DHT22;1055;48.854;9.302;2023-12-14T06:36:44;7.60;99.90
2100;DHT22;1055;48.854;9.302;2023-12-14T06:39:10;7.60;99.90
2100;DHT22;1055;48.854;9.302;2023-12-14T06:41:36;7.50;99.90
2100;DHT22;1055;48.854;9.302;2023-12-14T06:44:02;7.60;99.90
2100;DHT22;1055;48.854;9.302;2023-12-14T06:46:28;7.60;99.90
2100;DHT22;1055;48.854;9.302;2023-12-14T06:48:54;7.70;99.90
2100;DHT22;1055;48.854;9.302;2023-12-14T06:51:21;7.80;99.90
2100;DHT22;1055;48.854;9.302;2023-12-14T06:53:47;7.90;99.90
2100;DHT22;1055;48.854;9.302;2023-12-14T06:56:14;7.90;99.90
2100;DHT22;1055;48.854;9.302;2023-12-14T06:58:42;8.00;99.90
2100;DHT22;1055;48.854;9.302;2023-12-14T07:01:12;8.10;99.90
2100;DHT22;1055;48.854;9.302;2023-12-14T07:03:40;8.00;99.90
2100;DHT22;1055;48.854;9.302;2023-12-14T07:06:07;7.90;99.90
2100;DHT22;1055;48.854;9.302;2023-12-14T07:08:32;7.90;99.90
2100;DHT22;1055;48.854;9.302;2023-12-14T07:10:58;7.80;99.90
2100;DHT22;1055;48.854;9.302;2023-12-14T07:13:23;7.90;99.90
2100;DHT22;1055;48.854;9.302;2023-12-14T07:15:49;7.80;99.90
2100;DHT22;1055;48.854;9.302;2023-12-14T07:18:15;7.80;99.90
2100;DHT22;1055;48.854;9.302;2023-12-14T07:20:40;7.80;99.90
2100;DHT22;1055;48.854;9.302;2023-12-14T07:23:06;7.80;99.90
2100;DHT22;1055;48.854;9.302;2023-12-14T07:25:31;7.70;99.90
2100;DHT22;1055;48.854;9.302;2023-12-14T07:27:57;7.70;99.90
2100;DHT22;1055;48.854;9.302;2023-12-14T07:30:22;7.70;99.90
2100;DHT22;1055;48.854;9.302;2023-12-14T07:32:48;7.70;99.90
2100;DHT22;1055;48.854;9.302;2023-12-14T07:35:14;7.80;99.90
2100;DHT22;1055;48.854;9.302;2023-12-14T07:37:39;7.60;99.90
2100;DHT22;1055;48.854;9.302;2023-12-14T07:40:05;7.70;99.90
2100;DHT22;1055;48.854;9.302;2023-12-14T07:42:31;7.90;99.90
2100;DHT22;1055;48.854;9.302;2023-12-14T07:44:57;7.90;99.90
2100;DHT22;1055;48.854;9.302;2023-12-14T07:47:22;8.00;99.90
2100;DHT22;1055;48.854;9.302;2023-12-14T07:49:48;7.90;99.90
2100;DHT22;1055;48.854;9.302;2023-12-14T07:52:14;7.80;99.90
2100;DHT22;1055;48.854;9.302;2023-12-14T07:54:40;7.90;99.90
2100;DHT22;1055;48.854;9.302;2023-12-14T07:57:05;8.30;99.90
2100;DHT22;1055;48.854;9.302;2023-12-14T07:59:31;8.30;99.90
2100;DHT22;1055;48.854;9.302;2023-12-14T08:01:56;8.50;99.90
2100;DHT22;1055;48.854;9.302;2023-12-14T08:04:22;8.40;99.90
2100;DHT22;1055;48.854;9.302;2023-12-14T08:06:48;8.70;99.90
2100;DHT22;1055;48.854;9.302;2023-12-14T08:09:14;8.70;99.90
2100;DHT22;1055;48.854;9.302;2023-12-14T08:11:40;8.70;99.90
2100;DHT22;1055;48.854;9.302;2023-12-14T08:14:06;8.80;99.90
2100;DHT22;1055;48.854;9.302;2023-12-14T08:16:31;8.80;99.90
2100;DHT22;1055;48.854;9.302;2023-12-14T08:18:57;8.80;99.90
2100;DHT22;1055;48.854;9.302;2023-12-14T08:21:23;8.90;99.90
2100;DHT22;1055;48.854;9.302;2023-12-14T08:23:49;8.90;99.90
2100;DHT22;1055;48.854;9.302;2023-12-14T08:26:15;8.80;99.90
2100;DHT22;1055;48.854;9.302;2023-12-14T08:28:41;8.80;99.90
2100;DHT22;1055;48.854;9.302;2023-12-14T08:31:08;8.90;99.90
2100;DHT22;1055;48.854;9.302;2023-12-14T08:33:37;8.90;99.90
2100;DHT22;1055;48.854;9.302;2023-12-14T08:36:03;8.90;99.90
2100;DHT22;1055;48.854;9.302;2023-12-14T08:38:30;9.10;99.90
2100;DHT22;1055;48.854;9.302;2023-12-14T08:40:56;9.00;99.90
2100;DHT22;1055;48.854;9.302;2023-12-14T08:43:22;8.80;99.90
2100;DHT22;1055;48.854;9.302;2023-12-14T08:45:47;8.90;99.90
2100;DHT22;1055;48.854;9.302;2023-12-14T08:48:14;9.00;99.90
2100;DHT22;1055;48.854;9.302;2023-12-14T08:50:39;9.00;99.90
2100;DHT22;1055;48.854;9.302;2023-12-14T08:53:05;9.20;99.90
2100;DHT22;1055;48.854;9.302;2023-12-14T08:55:31;9.20;99.90
2100;DHT22;1055;48.854;9.302;2023-12-14T08:57:57;9.10;99.90
2100;DHT22;1055;48.854;9.302;2023-12-14T09:00:22;8.80;99.90
2100;DHT22;1055;48.854;9.302;2023-12-14T09:02:49;8.70;99.90
2100;DHT22;1055;48.854;9.302;2023-12-14T09:05:15;8.60;99.90
2100;DHT22;1055;48.854;9.302;2023-12-14T09:07:42;8.60;99.90
2100;DHT22;1055;48.854;9.302;2023-12-14T09:10:08;8.40;99.90
2100;DHT22;1055;48.854;9.302;2023-12-14T09:12:34;8.40;99.90
2100;DHT22;1055;48.854;9.302;2023-12-14T09:15:01;8.40;99.90
2100;DHT22;1055;48.854;9.302;2023-12-14T09:17:27;8.40;99.90
2100;DHT22;1055;48.854;9.302;2023-12-14T09:19:58;8.20;99.90
2100;DHT22;1055;48.854;9.302;2023-12-14T09:22:25;8.20;99.90
2100;DHT22;1055;48.854;9.302;2023-12-14T09:24:51;8.30;99.90
2100;DHT22;1055;48.854;9.302;2023-12-14T09:27:17;8.60;99.90
2100;DHT22;1055;48.854;9.302;2023-12-14T09:29:42;8.90;99.90
2100;DHT22;1055;48.854;9.302;2023-12-14T09:32:08;8.50;99.90
2100;DHT22;1055;48.854;9.302;2023-12-14T09:34:34;8.60;99.90
2100;DHT22;1055;48.854;9.302;2023-12-14T09:37:00;8.80;99.90
2100;DHT22;1055;48.854;9.302;2023-12-14T09:39:25;8.60;99.90
2100;DHT22;1055;48.854;9.302;2023-12-14T09:42:04;8.70;99.90
2100;DHT22;1055;48.854;9.302;2023-12-14T09:44:30;8.60;99.90
2100;DHT22;1055;48.854;9.302;2023-12-14T09:47:00;8.60;99.90
2100;DHT22;1055;48.854;9.302;2023-12-14T09:49:29;8.50;99.90
2100;DHT22;1055;48.854;9.302;2023-12-14T09:51:59;8.40;99.90
2100;DHT22;1055;48.854;9.302;2023-12-14T09:54:26;8.60;99.90
2100;DHT22;1055;48.854;9.302;2023-12-14T09:56:51;8.60;99.90
2100;DHT22;1055;48.854;9.302;2023-12-14T09:59:18;8.50;99.90
2100;DHT22;1055;48.854;9.302;2023-12-14T10:01:44;8.40;99.90
2100;DHT22;1055;48.854;9.302;2023-12-14T10:04:15;8.40;99.90
2100;DHT22;1055;48.854;9.302;2023-12-14T10:06:43;8.70;99.90
2100;DHT22;1055;48.854;9.302;2023-12-14T10:09:10;9.00;99.90
2100;DHT22;1055;48.854;9.302;2023-12-14T10:11:39;9.20;99.90
2100;DHT22;1055;48.854;9.302;2023-12-14T10:14:22;9.30;99.90
2100;DHT22;1055;48.854;9.302;2023-12-14T10:16:49;9.50;99.90
2100;DHT22;1055;48.854;9.302;2023-12-14T10:19:16;9.40;99.90
2100;DHT22;1055;48.854;9.302;2023-12-14T10:21:42;9.50;99.90
2100;DHT22;1055;48.854;9.302;2023-12-14T10:24:08;9.60;99.90
2100;DHT22;1055;48.854;9.302;2023-12-14T10:26:34;9.40;99.90
2100;DHT22;1055;48.854;9.302;2023-12-14T10:28:59;9.60;99.90
2100;DHT22;1055;48.854;9.302;2023-12-14T10:31:25;9.30;99.90
2100;DHT22;1055;48.854;9.302;2023-12-14T10:33:51;9.30;99.90
2100;DHT22;1055;48.854;9.302;2023-12-14T10:36:22;9.30;99.90
2100;DHT22;1055;48.854;9.302;2023-12-14T10:38:52;9.20;99.90
2100;DHT22;1055;48.854;9.302;2023-12-14T10:41:18;9.00;99.90
2100;DHT22;1055;48.854;9.302;2023-12-14T10:43:48;8.40;99.90
2100;DHT22;1055;48.854;9.302;2023-12-14T10:46:16;8.70;99.90
2100;DHT22;1055;48.854;9.302;2023-12-14T10:48:43;9.00;99.90
2100;DHT22;1055;48.854;9.302;2023-12-14T10:51:11;9.20;99.90
2100;DHT22;1055;48.854;9.302;2023-12-14T10:53:37;8.70;99.90
2100;DHT22;1055;48.854;9.302;2023-12-14T10:56:09;8.90;99.90
2100;DHT22;1055;48.854;9.302;2023-12-14T11:01:18;9.10;99.90
2100;DHT22;1055;48.854;9.302;2023-12-14T11:03:44;9.00;99.90
2100;DHT22;1055;48.854;9.302;2023-12-14T11:06:29;9.20;99.90
2100;DHT22;1055;48.854;9.302;2023-12-14T11:09:05;8.80;99.90
2100;DHT22;1055;48.854;9.302;2023-12-14T11:14:23;9.10;99.90
2100;DHT22;1055;48.854;9.302;2023-12-14T11:16:50;9.10;99.90
2100;DHT22;1055;48.854;9.302;2023-12-14T11:22:09;9.10;99.90
2100;DHT22;1055;48.854;9.302;2023-12-14T11:24:35;9.10;99.90
2100;DHT22;1055;48.854;9.302;2023-12-14T11:27:05;9.10;99.90
2100;DHT22;1055;48.854;9.302;2023-12-14T11:29:31;9.30;99.90
2100;DHT22;1055;48.854;9.302;2023-12-14T11:31:58;9.30;99.90
2100;DHT22;1055;48.854;9.302;2023-12-14T11:34:27;9.50;99.90
2100;DHT22;1055;48.854;9.302;2023-12-14T11:36:54;9.50;99.90
2100;DHT22;1055;48.854;9.302;2023-12-14T11:39:20;9.30;99.90
2100;DHT22;1055;48.854;9.302;2023-12-14T11:44:25;9.30;99.90
2100;DHT22;1055;48.854;9.302;2023-12-14T11:46:51;9.20;99.90
2100;DHT22;1055;48.854;9.302;2023-12-14T11:49:16;9.00;99.90
2100;DHT22;1055;48.854;9.302;2023-12-14T11:51:46;9.30;99.90
2100;DHT22;1055;48.854;9.302;2023-12-14T11:54:11;9.20;99.90
2100;DHT22;1055;48.854;9.302;2023-12-14T11:56:37;9.50;99.90
2100;DHT22;1055;48.854;9.302;2023-12-14T11:59:02;9.60;99.90
2100;DHT22;1055;48.854;9.302;2023-12-14T12:01:28;9.50;99.90
2100;DHT22;1055;48.854;9.302;2023-12-14T12:03:57;9.30;99.90
2100;DHT22;1055;48.854;9.302;2023-12-14T12:06:33;9.30;99.90
2100;DHT22;1055;48.854;9.302;2023-12-14T12:08:58;9.20;99.90
2100;DHT22;1055;48.854;9.302;2023-12-14T12:11:24;9.20;99.90
2100;DHT22;1055;48.854;9.302;2023-12-14T12:13:56;9.20;99.90
2100;DHT22;1055;48.854;9.302;2023-12-14T12:16:22;9.40;99.90
2100;DHT22;1055;48.854;9.302;2023-12-14T12:18:48;9.20;99.90
2100;DHT22;1055;48.854;9.302;2023-12-14T12:21:16;9.20;99.90
2100;DHT22;1055;48.854;9.302;2023-12-14T12:23:41;9.20;99.90
2100;DHT22;1055;48.854;9.302;2023-12-14T12:26:07;9.30;99.90
2100;DHT22;1055;48.854;9.302;2023-12-14T12:28:33;9.30;99.90
2100;DHT22;1055;48.854;9.302;2023-12-14T12:30:59;9.20;99.90
2100;DHT22;1055;48.854;9.302;2023-12-14T12:33:27;9.20;99.90
2100;DHT22;1055;48.854;9.302;2023-12-14T12:35:53;9.20;99.90
2100;DHT22;1055;48.854;9.302;2023-12-14T12:38:20;9.20;99.90
2100;DHT22;1055;48.854;9.302;2023-12-14T12:40:45;9.10;99.90
2100;DHT22;1055;48.854;9.302;2023-12-14T12:43:12;9.30;99.90
2100;DHT22;1055;48.854;9.302;2023-12-14T12:45:39;9.30;99.90
2100;DHT22;1055;48.854;9.302;2023-12-14T12:48:05;9.10;99.90
2100;DHT22;1055;48.854;9.302;2023-12-14T12:50:32;9.30;99.90
2100;DHT22;1055;48.854;9.302;2023-12-14T12:52:58;9.20;99.90
2100;DHT22;1055;48.854;9.302;2023-12-14T12:55:23;8.90;99.90
2100;DHT22;1055;48.854;9.302;2023-12-14T12:57:49;9.00;99.90
2100;DHT22;1055;48.854;9.302;2023-12-14T13:00:15;8.80;99.90
2100;DHT22;1055;48.854;9.302;2023-12-14T13:02:42;8.90;99.90
2100;DHT22;1055;48.854;9.302;2023-12-14T13:05:08;8.90;99.90
2100;DHT22;1055;48.854;9.302;2023-12-14T13:07:38;8.70;99.90
2100;DHT22;1055;48.854;9.302;2023-12-14T13:10:04;8.80;99.90
2100;DHT22;1055;48.854;9.302;2023-12-14T13:12:31;8.90;99.90
2100;DHT22;1055;48.854;9.302;2023-12-14T13:14:57;8.90;99.90
2100;DHT22;1055;48.854;9.302;2023-12-14T13:17:22;9.00;99.90
2100;DHT22;1055;48.854;9.302;2023-12-14T13:19:48;9.00;99.90
2100;DHT22;1055;48.854;9.302;2023-12-14T13:22:14;8.60;99.90
2100;DHT22;1055;48.854;9.302;2023-12-14T13:24:40;8.90;99.90
2100;DHT22;1055;48.854;9.302;2023-12-14T13:27:05;8.70;99.90
2100;DHT22;1055;48.854;9.302;2023-12-14T13:29:31;8.60;99.90
2100;DHT22;1055;48.854;9.302;2023-12-14T13:31:58;8.50;99.90
2100;DHT22;1055;48.854;9.302;2023-12-14T13:34:25;8.30;99.90
2100;DHT22;1055;48.854;9.302;2023-12-14T13:36:50;8.40;99.90
2100;DHT22;1055;48.854;9.302;2023-12-14T13:39:16;8.60;99.90
2100;DHT22;1055;48.854;9.302;2023-12-14T13:41:41;8.60;99.90
2100;DHT22;1055;48.854;9.302;2023-12-14T13:44:07;8.50;99.90
2100;DHT22;1055;48.854;9.302;2023-12-14T13:46:33;8.30;99.90
2100;DHT22;1055;48.854;9.302;2023-12-14T13:48:58;8.30;99.90
2100;DHT22;1055;48.854;9.302;2023-12-14T13:51:24;8.40;99.90
2100;DHT22;1055;48.854;9.302;2023-12-14T13:53:49;8.60;99.90
2100;DHT22;1055;48.854;9.302;2023-12-14T13:56:15;8.50;99.90
2100;DHT22;1055;48.854;9.302;2023-12-14T13:58:41;8.50;99.90
2100;DHT22;1055;48.854;9.302;2023-12-14T14:01:06;8.70;99.90
2100;DHT22;1055;48.854;9.302;2023-12-14T14:03:34;8.90;99.90
2100;DHT22;1055;48.854;9.302;2023-12-14T14:05:59;8.90;99.90
2100;DHT22;1055;48.854;9.302;2023-12-14T14:08:25;8.90;99.90
2100;DHT22;1055;48.854;9.302;2023-12-14T14:10:51;8.10;99.90
2100;DHT22;1055;48.854;9.302;2023-12-14T14:13:16;8.50;99.90
2100;DHT22;1055;48.854;9.302;2023-12-14T14:15:42;8.50;99.90
2100;DHT22;1055;48.854;9.302;2023-12-14T14:18:07;8.50;99.90
2100;DHT22;1055;48.854;9.302;2023-12-14T14:20:33;8.60;99.90
2100;DHT22;1055;48.854;9.302;2023-12-14T14:22:59;8.50;99.90
2100;DHT22;1055;48.854;9.302;2023-12-14T14:25:25;8.60;99.90
2100;DHT22;1055;48.854;9.302;2023-12-14T14:27:51;8.00;99.90
2100;DHT22;1055;48.854;9.302;2023-12-14T14:30:16;8.30;99.90
2100;DHT22;1055;48.854;9.302;2023-12-14T14:32:42;8.10;99.90
2100;DHT22;1055;48.854;9.302;2023-12-14T14:35:08;8.20;99.90
2100;DHT22;1055;48.854;9.302;2023-12-14T14:37:34;8.30;99.90
2100;DHT22;1055;48.854;9.302;2023-12-14T14:40:00;8.20;99.90
2100;DHT22;1055;48.854;9.302;2023-12-14T14:42:25;8.20;99.90
2100;DHT22;1055;48.854;9.302;2023-12-14T14:44:51;8.10;99.90
2100;DHT22;1055;48.854;9.302;2023-12-14T14:47:16;8.50;99.90
2100;DHT22;1055;48.854;9.302;2023-12-14T14:49:43;8.30;99.90
2100;DHT22;1055;48.854;9.302;2023-12-14T14:52:09;8.40;99.90
2100;DHT22;1055;48.854;9.302;2023-12-14T14:54:34;8.50;99.90
2100;DHT22;1055;48.854;9.302;2023-12-14T14:57:00;8.70;99.90
2100;DHT22;1055;48.854;9.302;2023-12-14T14:59:26;8.60;99.90
2100;DHT22;1055;48.854;9.302;2023-12-14T15:01:52;8.50;99.90
2100;DHT22;1055;48.854;9.302;2023-12-14T15:04:18;8.50;99.90
2100;DHT22;1055;48.854;9.302;2023-12-14T15:06:44;8.60;99.90
2100;DHT22;1055;48.854;9.302;2023-12-14T15:09:09;8.50;99.90
2100;DHT22;1055;48.854;9.302;2023-12-14T15:11:35;8.40;99.90
2100;DHT22;1055;48.854;9.302;2023-12-14T15:14:00;8.40;99.90
2100;DHT22;1055;48.854;9.302;2023-12-14T15:16:26;8.30;99.90
2100;DHT22;1055;48.854;9.302;2023-12-14T15:18:52;8.30;99.90
2100;DHT22;1055;48.854;9.302;2023-12-14T15:21:18;8.20;99.90
2100;DHT22;1055;48.854;9.302;2023-12-14T15:23:43;8.50;99.90
2100;DHT22;1055;48.854;9.302;2023-12-14T15:26:12;8.40;99.90
2100;DHT22;1055;48.854;9.302;2023-12-14T15:28:38;8.50;99.90
2100;DHT22;1055;48.854;9.302;2023-12-14T15:31:03;8.40;99.90
2100;DHT22;1055;48.854;9.302;2023-12-14T15:33:29;8.40;99.90
2100;DHT22;1055;48.854;9.302;2023-12-14T15:35:55;8.40;99.90
2100;DHT22;1055;48.854;9.302;2023-12-14T15:38:20;8.30;99.90
2100;DHT22;1055;48.854;9.302;2023-12-14T15:40:46;8.30;99.90
2100;DHT22;1055;48.854;9.302;2023-12-14T15:43:11;8.20;99.90
2100;DHT22;1055;48.854;9.302;2023-12-14T15:45:38;8.10;99.90
2100;DHT22;1055;48.854;9.302;2023-12-14T15:48:03;8.30;99.90
2100;DHT22;1055;48.854;9.302;2023-12-14T15:50:29;8.30;99.90
2100;DHT22;1055;48.854;9.302;2023-12-14T15:52:55;8.30;99.90
2100;DHT22;1055;48.854;9.302;2023-12-14T15:55:21;8.20;99.90
2100;DHT22;1055;48.854;9.302;2023-12-14T15:57:52;8.30;99.90
2100;DHT22;1055;48.854;9.302;2023-12-14T16:00:18;8.30;99.90
2100;DHT22;1055;48.854;9.302;2023-12-14T16:02:44;8.20;99.90
2100;DHT22;1055;48.854;9.302;2023-12-14T16:05:10;8.10;99.90
2100;DHT22;1055;48.854;9.302;2023-12-14T16:07:36;8.30;99.90
2100;DHT22;1055;48.854;9.302;2023-12-14T16:10:02;8.40;99.90
2100;DHT22;1055;48.854;9.302;2023-12-14T16:12:29;8.50;99.90
2100;DHT22;1055;48.854;9.302;2023-12-14T16:14:54;8.30;99.90
2100;DHT22;1055;48.854;9.302;2023-12-14T16:17:22;8.20;99.90
2100;DHT22;1055;48.854;9.302;2023-12-14T16:19:48;8.30;99.90